LIPS

Details ICAO LIPS
Name Istrana
Region Italy
Timezone Europe/Rome (UTC+2.0)
Plans Departing 18
Arriving 14
Stats Elevation 137 ft / 42 m (AMSL)
Location 45.684441° 12.087231°
Runways 1
Magnetic Variation 3.180° E
Sunrise 2018-05-21 03:35:48 UTC / 2018-05-21 05:35:48 Local
Sunset 2018-05-21 18:43:32 UTC / 2018-05-21 20:43:32 Local
Advertisement - Login to hide

Runways

ID Width Length Bearing (true) Bearing (mag) Surface Threshold Offset Overrun Length
08 105 ft / 32 m 9,791 ft / 2,984 m 81.97° 78.79° Asphalt 956 ft / 291 m 0 ft / 0 m
26 105 ft / 32 m 9,791 ft / 2,984 m 262.00° 258.82° Asphalt 953 ft / 290 m 0 ft / 0 m

Map

Weather


0- 5 10 15 20 25 30 35+ Temperature / ° C

Clouds and Precipitation
Forecast for 2018-05-21 06:00 UTC. Updated an hour ago

Ground ~20,000 ft ~40,000 ft Winds

METAR

LIPS 210355Z 35004KT 9999 SCT080 16/13 Q1015 RMK SCT VIS MIN 9999 WIND THR26 35003KT WIND THR08 35006KT BLU

TAF

Not found

Frequencies

Tower 122.10 MHz TWR
Approach 122.10 MHz TREVISO APP
Approach 120.40 MHz TREVISO APP
Approach 121.15 MHz TREVISO APP
Warning: Do not use this data for real-world aviation or navigation. No guarantee of current accuracy is given.